createdAt,value
2023-04-26T00:00:33.964Z,6.15
2023-04-26T00:03:01.967Z,5.35
2023-04-26T00:05:30.011Z,5.43
2023-04-26T00:07:58.554Z,4.90
2023-04-26T00:10:26.378Z,5.53
2023-04-26T00:12:54.169Z,5.22
2023-04-26T00:15:21.920Z,5.38
2023-04-26T00:17:50.755Z,4.95
2023-04-26T00:20:18.595Z,5.53
2023-04-26T00:22:46.718Z,5.40
2023-04-26T00:25:14.717Z,4.70
2023-04-26T00:27:42.545Z,4.85
2023-04-26T00:30:13.284Z,5.32
2023-04-26T00:32:41.003Z,5.72
2023-04-26T00:35:09.203Z,4.30
2023-04-26T00:37:36.946Z,4.68
2023-04-26T00:40:06.167Z,5.07
2023-04-26T00:42:34.037Z,5.28
2023-04-26T00:45:01.775Z,5.20
2023-04-26T00:47:31.125Z,4.75
2023-04-26T00:49:59.074Z,5.25
2023-04-26T00:52:27.385Z,5.28
2023-04-26T00:54:56.480Z,4.68
2023-04-26T00:57:24.603Z,5.00
2023-04-26T00:59:52.567Z,4.10
2023-04-26T01:02:21.756Z,4.90
2023-04-26T01:04:49.567Z,5.07
2023-04-26T01:07:17.446Z,4.65
2023-04-26T01:09:45.250Z,4.53
2023-04-26T01:12:14.207Z,5.30
2023-04-26T01:14:41.953Z,5.93
2023-04-26T01:17:09.713Z,5.68
2023-04-26T01:19:37.820Z,5.03
2023-04-26T01:22:05.588Z,5.25
2023-04-26T01:24:36.214Z,4.60
2023-04-26T01:27:04.355Z,3.60
2023-04-26T01:29:33.090Z,4.03
2023-04-26T01:32:00.790Z,3.28
2023-04-26T01:34:28.669Z,3.50
2023-04-26T01:36:56.517Z,4.20
2023-04-26T01:39:24.345Z,4.07
2023-04-26T01:41:52.262Z,3.70
2023-04-26T01:44:19.973Z,4.07
2023-04-26T01:46:47.806Z,3.97
2023-04-26T01:49:15.629Z,5.18
2023-04-26T01:51:43.477Z,4.03
2023-04-26T01:54:11.272Z,3.83
2023-04-26T01:56:39.219Z,4.80
2023-04-26T01:59:07.075Z,5.05
2023-04-26T02:01:38.318Z,5.72
2023-04-26T02:04:06.542Z,4.35
2023-04-26T02:06:34.469Z,4.53
2023-04-26T02:09:02.158Z,3.78
2023-04-26T02:11:29.818Z,4.38
2023-04-26T02:13:57.445Z,4.57
2023-04-26T02:16:25.330Z,4.72
2023-04-26T02:18:54.044Z,5.03
2023-04-26T02:21:22.406Z,5.25
2023-04-26T02:23:50.172Z,6.53
2023-04-26T02:26:17.936Z,7.70
2023-04-26T02:28:45.651Z,6.30
2023-04-26T02:31:16.016Z,6.65
2023-04-26T02:33:44.102Z,6.45
2023-04-26T02:36:12.013Z,5.45
2023-04-26T02:38:39.817Z,5.38
2023-04-26T02:41:07.526Z,4.90
2023-04-26T02:43:35.095Z,5.50
2023-04-26T02:46:02.831Z,5.72
2023-04-26T02:48:30.599Z,5.85
2023-04-26T02:50:58.410Z,6.07
2023-04-26T02:53:26.128Z,6.10
2023-04-26T02:56:09.536Z,8.10
2023-04-26T02:58:37.257Z,6.47
2023-04-26T03:01:06.770Z,5.85
2023-04-26T03:03:34.752Z,5.60
2023-04-26T03:06:05.765Z,5.50
2023-04-26T03:08:35.217Z,6.47
2023-04-26T03:11:04.611Z,9.75
2023-04-26T03:13:34.699Z,11.10
2023-04-26T03:16:02.550Z,9.52
2023-04-26T03:18:30.620Z,8.75
2023-04-26T03:20:58.431Z,6.45
2023-04-26T03:23:28.706Z,7.30
2023-04-26T03:25:56.619Z,6.80
2023-04-26T03:28:24.396Z,6.55
2023-04-26T03:30:52.057Z,5.55
2023-04-26T03:33:19.799Z,3.40
2023-04-26T03:35:47.570Z,3.55
2023-04-26T03:38:15.515Z,3.75
2023-04-26T03:40:43.361Z,4.22
2023-04-26T03:43:11.066Z,3.90
2023-04-26T03:45:38.928Z,4.40
2023-04-26T03:48:06.619Z,5.13
2023-04-26T03:50:34.494Z,4.40
2023-04-26T03:53:02.168Z,3.42
2023-04-26T03:55:29.879Z,3.70
2023-04-26T03:57:57.856Z,4.30
2023-04-26T04:00:25.930Z,4.57
2023-04-26T04:02:54.301Z,4.00
2023-04-26T04:05:22.153Z,3.28
2023-04-26T04:07:50.281Z,4.68
2023-04-26T04:10:19.030Z,3.85
2023-04-26T04:12:46.763Z,5.50
2023-04-26T04:15:14.501Z,5.00
2023-04-26T04:17:42.257Z,4.50
2023-04-26T04:20:10.198Z,4.60
2023-04-26T04:22:39.844Z,4.63
2023-04-26T04:25:09.243Z,4.05
2023-04-26T04:27:38.269Z,4.47
2023-04-26T04:30:07.915Z,3.47
2023-04-26T04:32:36.183Z,3.10
2023-04-26T04:35:03.885Z,3.55
2023-04-26T04:37:33.700Z,3.83
2023-04-26T04:40:01.752Z,4.20
2023-04-26T04:42:29.450Z,4.07
2023-04-26T04:44:57.722Z,4.53
2023-04-26T04:47:25.917Z,3.92
2023-04-26T04:49:53.943Z,4.80
2023-04-26T04:52:22.005Z,5.75
2023-04-26T04:54:49.812Z,5.78
2023-04-26T04:57:17.684Z,5.50
2023-04-26T04:59:45.351Z,4.68
2023-04-26T05:02:13.672Z,3.70
2023-04-26T05:04:42.506Z,4.50
2023-04-26T05:07:10.551Z,3.65
2023-04-26T05:09:38.190Z,4.57
2023-04-26T05:12:06.088Z,4.35
2023-04-26T05:14:33.953Z,4.35
2023-04-26T05:17:01.799Z,5.07
2023-04-26T05:19:29.447Z,5.15
2023-04-26T05:21:58.077Z,4.72
2023-04-26T05:24:25.920Z,5.47
2023-04-26T05:26:53.659Z,4.32
2023-04-26T05:29:21.547Z,5.22
2023-04-26T05:31:49.317Z,4.38
2023-04-26T05:34:17.173Z,3.72
2023-04-26T05:36:45.124Z,5.88
2023-04-26T05:39:12.731Z,4.35
2023-04-26T05:41:40.569Z,7.45
2023-04-26T05:44:08.370Z,4.93
2023-04-26T05:46:36.109Z,5.35
2023-04-26T05:49:03.824Z,4.38
2023-04-26T05:51:31.595Z,6.20
2023-04-26T05:53:59.362Z,6.43
2023-04-26T05:56:27.152Z,6.25
2023-04-26T05:58:55.011Z,4.50
2023-04-26T06:01:23.089Z,6.30
2023-04-26T06:03:51.696Z,4.72
2023-04-26T06:06:20.801Z,4.20
2023-04-26T06:08:48.448Z,3.88
2023-04-26T06:11:16.111Z,3.88
2023-04-26T06:13:43.839Z,2.90
2023-04-26T06:16:11.633Z,4.65
2023-04-26T06:18:39.397Z,5.32
2023-04-26T06:21:07.216Z,4.93
2023-04-26T06:23:34.964Z,4.03
2023-04-26T06:26:02.757Z,3.95
2023-04-26T06:28:30.703Z,2.92
2023-04-26T06:30:58.724Z,3.05
2023-04-26T06:33:26.475Z,2.95
2023-04-26T06:35:54.335Z,2.63
2023-04-26T06:38:21.988Z,5.57
2023-04-26T06:40:49.712Z,5.95
2023-04-26T06:43:17.327Z,4.40
2023-04-26T06:45:45.190Z,5.80
2023-04-26T06:48:13.119Z,7.63
2023-04-26T06:50:41.125Z,3.40
2023-04-26T06:53:09.289Z,4.63
2023-04-26T06:55:37.255Z,4.55
2023-04-26T06:58:04.982Z,2.50
2023-04-26T07:00:33.071Z,4.50
2023-04-26T07:03:03.421Z,4.43
2023-04-26T07:05:31.552Z,2.67
2023-04-26T07:07:59.334Z,6.35
2023-04-26T07:10:27.928Z,3.25
2023-04-26T07:12:55.958Z,5.80
2023-04-26T07:15:23.887Z,3.67
2023-04-26T07:17:51.866Z,3.28
2023-04-26T07:20:23.063Z,4.85
2023-04-26T07:22:51.369Z,7.18
2023-04-26T07:25:19.229Z,3.53
2023-04-26T07:27:46.886Z,3.22
2023-04-26T07:30:14.649Z,3.42
2023-04-26T07:32:43.695Z,3.90
2023-04-26T07:35:23.345Z,3.45
2023-04-26T07:37:51.201Z,4.28
2023-04-26T07:40:20.056Z,3.85
2023-04-26T07:42:48.040Z,4.20
2023-04-26T07:45:15.994Z,2.85
2023-04-26T07:47:44.567Z,3.50
2023-04-26T07:50:12.591Z,5.32
2023-04-26T07:52:40.318Z,4.68
2023-04-26T07:55:08.404Z,4.65
2023-04-26T07:57:36.471Z,5.43
2023-04-26T08:00:07.985Z,6.57
2023-04-26T08:02:44.577Z,4.60
2023-04-26T08:05:14.129Z,3.13
2023-04-26T08:07:42.391Z,3.55
2023-04-26T08:10:10.537Z,4.65
2023-04-26T08:12:38.809Z,7.57
2023-04-26T08:15:07.037Z,6.13
2023-04-26T08:17:35.211Z,5.65
2023-04-26T08:20:05.321Z,5.25
2023-04-26T08:22:33.094Z,6.55
2023-04-26T08:25:00.909Z,3.72
2023-04-26T08:27:28.677Z,3.38
2023-04-26T08:29:57.199Z,5.57
2023-04-26T08:32:25.074Z,4.65
2023-04-26T08:34:53.049Z,6.30
2023-04-26T08:37:21.028Z,6.82
2023-04-26T08:39:49.026Z,5.78
2023-04-26T08:42:17.523Z,5.75
2023-04-26T08:44:46.195Z,6.45
2023-04-26T08:47:14.142Z,6.15
2023-04-26T08:49:42.696Z,3.28
2023-04-26T08:52:15.123Z,5.05
2023-04-26T08:54:45.700Z,5.18
2023-04-26T08:57:14.188Z,5.32
2023-04-26T08:59:42.872Z,3.05
2023-04-26T09:02:12.074Z,6.20
2023-04-26T09:04:40.386Z,5.85
2023-04-26T09:07:08.406Z,4.15
2023-04-26T09:09:39.774Z,2.92
2023-04-26T09:12:08.404Z,4.07
2023-04-26T09:14:36.503Z,3.08
2023-04-26T09:17:04.399Z,3.70
2023-04-26T09:19:44.722Z,5.32
2023-04-26T09:22:14.876Z,2.45
2023-04-26T09:24:53.185Z,5.40
2023-04-26T09:27:21.334Z,2.80
2023-04-26T09:30:18.578Z,1.60
2023-04-26T09:33:04.724Z,3.83
2023-04-26T09:35:33.497Z,4.70
2023-04-26T09:38:07.813Z,2.90
2023-04-26T09:40:45.283Z,4.43
2023-04-26T09:43:17.611Z,5.47
2023-04-26T09:45:51.437Z,2.92
2023-04-26T09:48:31.073Z,4.97
2023-04-26T09:51:00.037Z,4.30
2023-04-26T09:53:29.216Z,4.03
2023-04-26T09:55:57.290Z,5.28
2023-04-26T09:58:25.121Z,5.50
2023-04-26T10:00:54.659Z,4.05
2023-04-26T10:03:24.166Z,3.30
2023-04-26T10:05:52.027Z,4.93
2023-04-26T10:08:19.696Z,9.68
2023-04-26T10:10:48.791Z,8.82
2023-04-26T10:13:17.037Z,4.55
2023-04-26T10:15:44.788Z,5.43
2023-04-26T10:18:12.652Z,4.10
2023-04-26T10:20:45.534Z,5.53
2023-04-26T10:23:20.124Z,3.75
2023-04-26T10:25:48.027Z,4.55
2023-04-26T10:28:16.222Z,4.88
2023-04-26T10:30:59.760Z,4.15
2023-04-26T10:33:28.041Z,3.10
2023-04-26T10:36:07.455Z,3.50
2023-04-26T10:38:37.529Z,3.70
2023-04-26T10:41:37.011Z,3.03
2023-04-26T10:44:42.460Z,3.50
2023-04-26T10:47:24.114Z,5.25
2023-04-26T10:49:51.778Z,6.22
2023-04-26T10:52:20.604Z,4.78
2023-04-26T10:54:49.155Z,3.72
2023-04-26T10:57:17.417Z,6.55
2023-04-26T11:00:17.219Z,4.55
2023-04-26T11:02:53.949Z,3.92
2023-04-26T11:05:36.375Z,3.72
2023-04-26T11:08:10.367Z,3.30
2023-04-26T11:10:39.184Z,4.00
2023-04-26T11:13:07.037Z,4.80
2023-04-26T11:15:37.441Z,4.15
2023-04-26T11:18:05.638Z,4.25
2023-04-26T11:20:34.160Z,4.15
2023-04-26T11:23:02.754Z,6.18
2023-04-26T11:25:31.483Z,11.00
2023-04-26T11:28:03.361Z,4.05
2023-04-26T11:30:34.163Z,3.85
2023-04-26T11:33:02.427Z,4.15
2023-04-26T11:35:31.028Z,3.83
2023-04-26T11:38:04.893Z,3.67
2023-04-26T11:40:33.031Z,2.95
2023-04-26T11:43:01.583Z,3.30
2023-04-26T11:45:32.120Z,3.47
2023-04-26T11:47:59.903Z,3.45
2023-04-26T11:50:28.172Z,5.75
2023-04-26T11:53:02.160Z,3.83
2023-04-26T11:55:34.299Z,4.63
2023-04-26T11:58:03.532Z,5.95
2023-04-26T12:00:32.341Z,3.75
2023-04-26T12:03:06.023Z,5.35
2023-04-26T12:05:36.402Z,2.83
2023-04-26T12:08:04.731Z,6.75
2023-04-26T12:10:33.485Z,2.55
2023-04-26T12:13:04.301Z,5.65
2023-04-26T12:15:33.208Z,5.45
2023-04-26T12:18:09.398Z,6.70
2023-04-26T12:20:38.037Z,6.00
2023-04-26T12:23:10.091Z,4.07
2023-04-26T12:25:39.633Z,6.28
2023-04-26T12:28:14.659Z,4.32
2023-04-26T12:30:42.613Z,8.05
2023-04-26T12:33:17.083Z,7.55
2023-04-26T12:35:45.894Z,3.80
2023-04-26T12:38:14.232Z,6.55
2023-04-26T12:40:42.781Z,7.63
2023-04-26T12:43:10.850Z,9.38
2023-04-26T12:45:38.651Z,8.32
2023-04-26T12:48:06.823Z,8.45
2023-04-26T12:50:34.926Z,6.57
2023-04-26T12:53:02.651Z,10.57
2023-04-26T12:55:32.598Z,8.07
2023-04-26T12:58:03.372Z,6.45
2023-04-26T13:00:31.928Z,6.55
2023-04-26T13:03:00.022Z,6.05
2023-04-26T13:05:29.910Z,6.65
2023-04-26T13:07:57.682Z,5.05
2023-04-26T13:10:25.585Z,4.05
2023-04-26T13:12:54.110Z,4.55
2023-04-26T13:15:24.231Z,4.13
2023-04-26T13:17:51.845Z,3.97
2023-04-26T13:20:19.885Z,5.63
2023-04-26T13:22:47.944Z,4.75
2023-04-26T13:25:19.347Z,4.47
2023-04-26T13:27:47.448Z,4.10
2023-04-26T13:30:15.536Z,4.57
2023-04-26T13:32:43.490Z,5.47
2023-04-26T13:35:12.292Z,3.97
2023-04-26T13:37:42.957Z,4.35
2023-04-26T13:40:13.850Z,5.68
2023-04-26T13:42:42.068Z,3.40
2023-04-26T13:45:16.996Z,5.95
2023-04-26T13:50:13.708Z,3.97
2023-04-26T13:52:41.462Z,5.00
2023-04-26T13:55:09.579Z,4.07
2023-04-26T13:57:37.429Z,4.82
2023-04-26T14:00:05.361Z,4.85
2023-04-26T14:02:33.346Z,4.43
2023-04-26T14:05:03.186Z,5.80
2023-04-26T14:09:58.585Z,2.10
2023-04-26T14:12:26.443Z,3.63
2023-04-26T14:14:54.285Z,5.40
2023-04-26T14:17:22.122Z,4.45
2023-04-26T14:19:52.907Z,4.10
2023-04-26T14:22:22.281Z,1.60
2023-04-26T14:24:50.024Z,2.33
2023-04-26T14:27:17.893Z,2.63
2023-04-26T14:29:45.719Z,1.48
2023-04-26T14:32:13.683Z,2.83
2023-04-26T14:34:42.058Z,1.80
2023-04-26T14:37:10.510Z,1.23
2023-04-26T14:39:38.686Z,2.10
2023-04-26T14:42:06.892Z,1.70
2023-04-26T14:44:37.344Z,2.45
2023-04-26T14:47:05.621Z,3.28
2023-04-26T14:49:33.483Z,2.63
2023-04-26T14:52:01.230Z,1.65
2023-04-26T14:54:31.486Z,1.73
2023-04-26T14:57:03.202Z,1.83
2023-04-26T14:59:31.202Z,3.33
2023-04-26T15:02:02.194Z,2.25
2023-04-26T15:04:30.399Z,1.55
2023-04-26T15:06:58.388Z,1.65
2023-04-26T15:09:27.448Z,1.70
2023-04-26T15:11:56.112Z,2.58
2023-04-26T15:14:24.796Z,1.10
2023-04-26T15:16:52.649Z,1.50
2023-04-26T15:19:21.213Z,2.80
2023-04-26T15:21:49.378Z,1.90
2023-04-26T15:24:17.227Z,1.88
2023-04-26T15:26:44.900Z,1.80
2023-04-26T15:29:12.689Z,2.35
2023-04-26T15:31:40.796Z,2.83
2023-04-26T15:34:09.001Z,2.40
2023-04-26T15:36:36.823Z,1.20
2023-04-26T15:39:04.607Z,2.33
2023-04-26T15:41:32.369Z,2.05
2023-04-26T15:44:00.274Z,3.00
2023-04-26T15:46:28.129Z,2.08
2023-04-26T15:48:55.962Z,1.98
2023-04-26T15:51:23.860Z,2.15
2023-04-26T15:53:52.243Z,2.40
2023-04-26T15:56:20.102Z,1.63
2023-04-26T15:58:48.620Z,1.63
2023-04-26T16:01:16.547Z,2.88
2023-04-26T16:03:47.688Z,1.23
2023-04-26T16:06:15.790Z,1.50
2023-04-26T16:08:43.586Z,2.05
2023-04-26T16:11:11.443Z,1.88
2023-04-26T16:13:39.166Z,1.45
2023-04-26T16:16:10.904Z,1.55
2023-04-26T16:18:43.876Z,1.02
2023-04-26T16:21:13.085Z,1.80
2023-04-26T16:23:43.679Z,0.93
2023-04-26T16:26:11.806Z,1.50
2023-04-26T16:28:39.520Z,1.00
2023-04-26T16:31:07.354Z,1.55
2023-04-26T16:33:34.971Z,1.30
2023-04-26T16:36:02.704Z,0.95
2023-04-26T16:38:33.543Z,1.33
2023-04-26T16:41:01.831Z,0.90
2023-04-26T16:43:30.515Z,1.23
2023-04-26T16:46:05.368Z,1.25
2023-04-26T16:48:33.579Z,1.33
2023-04-26T16:51:02.936Z,1.92
2023-04-26T16:53:32.238Z,0.98
2023-04-26T16:56:00.860Z,1.10
2023-04-26T16:58:28.755Z,1.08
2023-04-26T17:00:56.991Z,2.88
2023-04-26T17:03:25.639Z,1.08
2023-04-26T17:05:54.050Z,1.50
2023-04-26T17:08:22.089Z,0.77
2023-04-26T17:10:49.954Z,1.25
2023-04-26T17:13:17.796Z,0.85
2023-04-26T17:15:46.263Z,0.77
2023-04-26T17:18:14.074Z,0.85
2023-04-26T17:20:42.412Z,0.57
2023-04-26T17:23:10.205Z,1.23
2023-04-26T17:25:38.081Z,0.95
2023-04-26T17:28:06.007Z,1.40
2023-04-26T17:30:33.766Z,0.93
2023-04-26T17:33:01.705Z,1.10
2023-04-26T17:35:29.643Z,0.85
2023-04-26T17:37:57.490Z,1.42
2023-04-26T17:40:25.321Z,1.20
2023-04-26T17:42:52.980Z,1.50
2023-04-26T17:45:20.662Z,1.00
2023-04-26T17:47:48.842Z,0.75
2023-04-26T17:50:17.914Z,0.57
2023-04-26T17:52:45.899Z,1.05
2023-04-26T17:55:16.183Z,1.30
2023-04-26T17:57:43.815Z,1.33
2023-04-26T18:00:11.798Z,0.90
2023-04-26T18:02:39.770Z,0.35
2023-04-26T18:05:08.757Z,0.95
2023-04-26T18:07:36.593Z,0.95
2023-04-26T18:10:04.470Z,1.80
2023-04-26T18:12:32.227Z,1.70
2023-04-26T18:14:59.848Z,1.85
2023-04-26T18:17:28.237Z,2.20
2023-04-26T18:19:56.520Z,1.58
2023-04-26T18:22:24.275Z,1.45
2023-04-26T18:24:52.038Z,0.35
2023-04-26T18:27:22.424Z,1.33
2023-04-26T18:29:50.124Z,1.42
2023-04-26T18:32:18.094Z,1.10
2023-04-26T18:34:45.923Z,1.20
2023-04-26T18:37:13.678Z,0.85
2023-04-26T18:39:41.444Z,1.27
2023-04-26T18:42:09.344Z,0.85
2023-04-26T18:44:36.983Z,0.40
2023-04-26T18:47:05.840Z,0.60
2023-04-26T18:49:33.550Z,1.80
2023-04-26T18:52:01.736Z,1.65
2023-04-26T18:54:31.207Z,0.80
2023-04-26T18:57:00.287Z,1.23
2023-04-26T19:01:59.164Z,1.70
2023-04-26T19:04:29.798Z,0.63
2023-04-26T19:06:57.505Z,0.90
2023-04-26T19:09:25.247Z,0.25
2023-04-26T19:11:52.985Z,0.45
2023-04-26T19:14:20.987Z,0.57
2023-04-26T19:16:48.707Z,0.73
2023-04-26T19:19:16.478Z,0.40
2023-04-26T19:21:44.095Z,0.50
2023-04-26T19:24:11.927Z,0.43
2023-04-26T19:26:39.724Z,0.40
2023-04-26T19:29:07.510Z,0.95
2023-04-26T19:31:35.194Z,0.93
2023-04-26T19:34:03.974Z,0.63
2023-04-26T19:36:31.747Z,0.30
2023-04-26T19:38:59.676Z,0.77
2023-04-26T19:41:27.437Z,0.85
2023-04-26T19:43:57.324Z,0.88
2023-04-26T19:46:25.139Z,0.68
2023-04-26T19:48:52.888Z,0.93
2023-04-26T19:51:20.634Z,1.75
2023-04-26T19:53:48.483Z,1.70
2023-04-26T19:56:16.116Z,3.08
2023-04-26T19:58:44.164Z,1.15
2023-04-26T20:01:12.293Z,0.50
2023-04-26T20:03:41.608Z,0.55
2023-04-26T20:06:09.881Z,1.98
2023-04-26T20:08:39.829Z,1.85
2023-04-26T20:13:38.159Z,0.98
2023-04-26T20:16:06.481Z,1.27
2023-04-26T20:18:36.938Z,1.05
2023-04-26T20:21:05.062Z,0.73
2023-04-26T20:23:32.926Z,0.80
2023-04-26T20:26:00.758Z,0.80
2023-04-26T20:28:28.908Z,0.65
2023-04-26T20:30:56.857Z,0.88
2023-04-26T20:33:24.566Z,1.48
2023-04-26T20:35:53.462Z,2.15
2023-04-26T20:38:21.433Z,1.85
2023-04-26T20:40:49.197Z,1.45
2023-04-26T20:43:17.020Z,1.45
2023-04-26T20:45:47.222Z,1.05
2023-04-26T20:48:15.478Z,0.73
2023-04-26T20:50:43.250Z,1.15
2023-04-26T20:53:11.343Z,1.38
2023-04-26T20:55:39.246Z,1.92
2023-04-26T20:58:09.445Z,1.55
2023-04-26T21:00:37.124Z,1.92
2023-04-26T21:03:05.965Z,2.83
2023-04-26T21:05:33.821Z,2.20
2023-04-26T21:08:04.693Z,0.88
2023-04-26T21:10:32.390Z,1.30
2023-04-26T21:13:00.610Z,0.63
2023-04-26T21:15:28.473Z,0.65
2023-04-26T21:17:56.267Z,0.68
2023-04-26T21:20:24.353Z,0.60
2023-04-26T21:22:52.499Z,0.50
2023-04-26T21:25:20.253Z,1.33
2023-04-26T21:27:48.068Z,1.00
2023-04-26T21:30:16.054Z,0.35
2023-04-26T21:32:43.743Z,0.40
2023-04-26T21:35:11.661Z,0.50
2023-04-26T21:37:39.686Z,0.75
2023-04-26T21:40:08.289Z,0.77
2023-04-26T21:42:35.977Z,1.05
2023-04-26T21:45:03.660Z,1.20
2023-04-26T21:47:31.572Z,0.75
2023-04-26T21:49:59.476Z,0.40
2023-04-26T21:52:27.323Z,0.85
2023-04-26T21:54:55.105Z,0.98
2023-04-26T21:57:24.282Z,0.57
2023-04-26T21:59:52.232Z,0.45
2023-04-26T22:02:21.099Z,0.57
2023-04-26T22:04:48.902Z,0.70
2023-04-26T22:07:16.508Z,1.42
2023-04-26T22:09:44.217Z,0.90
2023-04-26T22:12:12.084Z,1.02
2023-04-26T22:14:39.735Z,1.10
2023-04-26T22:17:07.536Z,1.52
2023-04-26T22:19:35.344Z,0.75
2023-04-26T22:22:03.182Z,0.75
2023-04-26T22:24:30.988Z,0.43
2023-04-26T22:26:58.804Z,0.50
2023-04-26T22:29:26.747Z,0.95
2023-04-26T22:31:54.597Z,0.60
2023-04-26T22:34:24.672Z,0.50
2023-04-26T22:39:19.959Z,0.88
2023-04-26T22:41:47.800Z,1.00
2023-04-26T22:44:15.839Z,0.30
2023-04-26T22:46:43.500Z,0.30
2023-04-26T22:49:11.522Z,0.70
2023-04-26T22:51:39.565Z,1.88
2023-04-26T22:54:07.708Z,0.90
2023-04-26T22:56:35.376Z,1.58
2023-04-26T22:59:03.228Z,1.35
2023-04-26T23:01:35.210Z,1.10
2023-04-26T23:04:03.036Z,1.70
2023-04-26T23:06:32.094Z,1.15
2023-04-26T23:08:59.924Z,1.63
2023-04-26T23:11:27.956Z,2.17
2023-04-26T23:13:56.677Z,1.67
2023-04-26T23:16:25.128Z,1.40
2023-04-26T23:18:52.958Z,2.05
2023-04-26T23:21:20.893Z,1.95
2023-04-26T23:23:48.664Z,1.67
2023-04-26T23:26:16.430Z,1.58
2023-04-26T23:28:44.209Z,2.08
2023-04-26T23:31:12.127Z,1.83
2023-04-26T23:33:39.933Z,2.10
2023-04-26T23:36:08.370Z,1.30
2023-04-26T23:38:38.953Z,2.03
2023-04-26T23:41:06.670Z,1.38
2023-04-26T23:43:34.695Z,2.08
2023-04-26T23:46:04.047Z,1.20
2023-04-26T23:48:31.891Z,1.75
2023-04-26T23:51:00.396Z,1.25
2023-04-26T23:53:28.076Z,1.25
2023-04-26T23:55:55.955Z,0.90
2023-04-26T23:58:24.288Z,2.08
